Time;durP1;ratioP1;P1;durP2;ratioP2;P2;SDS_P1;SDS_P2;PMS_P1;PMS_P2;Temp;Humidity;BMP_temperature;BMP_pressure;BME280_temperature;BME280_humidity;BME280_pressure;Samples;Min_cycle;Max_cycle;Signal;HPM_P1;HPM_P2
2023/10/07 00:00:26;;;;;;;2.90;1.73;;;;;;;11.29;55.62;94367.78;520923;28;1499;-48
2023/10/07 00:00:48;;;;;;;2.40;1.67;;;;;;;11.28;55.58;94371.84;519605;28;1578;-48
2023/10/07 00:01:04;;;;;;;3.38;1.67;;;;;;;11.27;55.88;94368.31;521194;28;1140;-48
2023/10/07 00:01:24;;;;;;;2.10;1.67;;;;;;;11.26;55.79;94366.81;521871;28;845;-50
2023/10/07 00:01:40;;;;;;;1.97;1.70;;;;;;;11.26;55.91;94372.34;521951;28;963;-49
2023/10/07 00:01:55;;;;;;;2.42;1.70;;;;;;;11.13;56.12;94355.03;521936;28;871;-49
2023/10/07 00:02:13;;;;;;;2.25;1.60;;;;;;;11.19;55.94;94369.47;521793;28;986;-49
2023/10/07 00:02:32;;;;;;;1.95;1.75;;;;;;;11.19;56.13;94369.47;521777;28;1072;-49
2023/10/07 00:02:48;;;;;;;1.60;1.50;;;;;;;11.20;56.13;94368.19;521904;28;968;-49
2023/10/07 00:03:06;;;;;;;2.33;1.57;;;;;;;11.18;55.94;94365.22;521860;28;849;-48
2023/10/07 00:03:23;;;;;;;3.13;1.50;;;;;;;11.16;56.19;94362.25;521829;28;897;-48
2023/10/07 00:03:39;;;;;;;2.92;1.65;;;;;;;11.18;56.15;94367.97;521909;28;873;-47
2023/10/07 00:03:56;;;;;;;2.55;1.70;;;;;;;11.18;56.00;94365.97;521640;28;1132;-48
2023/10/07 00:04:13;;;;;;;1.90;1.50;;;;;;;11.17;56.17;94370.03;520704;28;1680;-48
2023/10/07 00:04:30;;;;;;;1.95;1.63;;;;;;;11.16;55.77;94370.53;519848;28;860;-47
2023/10/07 00:04:46;;;;;;;3.67;1.80;;;;;;;11.15;56.13;94364.25;519841;28;979;-47
2023/10/07 00:05:01;;;;;;;3.87;1.80;;;;;;;11.15;55.97;94374.59;519892;28;862;-48
2023/10/07 00:05:20;;;;;;;6.30;1.85;;;;;;;11.14;56.20;94367.56;521866;28;1075;-48
2023/10/07 00:05:35;;;;;;;4.65;1.55;;;;;;;11.14;56.15;94367.56;521817;28;1187;-48
2023/10/07 00:06:00;;;;;;;2.15;1.70;;;;;;;11.15;55.63;94366.28;521710;28;798;-48
2023/10/07 00:06:16;;;;;;;4.03;1.60;;;;;;;11.15;56.28;94369.78;519749;28;924;-48
2023/10/07 00:06:34;;;;;;;4.75;1.77;;;;;;;11.15;55.97;94363.53;519550;28;870;-48
2023/10/07 00:06:50;;;;;;;4.07;1.92;;;;;;;11.17;56.05;94366.50;519656;28;1637;-47
2023/10/07 00:07:10;;;;;;;3.43;1.97;;;;;;;11.15;56.08;94361.50;521219;28;1965;-48
2023/10/07 00:07:30;;;;;;;2.72;1.67;;;;;;;11.16;55.88;94365.75;521740;28;947;-49
2023/10/07 00:07:45;;;;;;;3.03;1.50;;;;;;;11.16;55.91;94359.47;521757;28;1020;-48
2023/10/07 00:08:08;;;;;;;2.67;1.80;;;;;;;11.13;55.83;94363.31;520095;28;1637;-48
2023/10/07 00:08:26;;;;;;;4.18;1.80;;;;;;;11.06;55.79;94361.19;520333;28;881;-47
2023/10/07 00:08:42;;;;;;;5.00;1.92;;;;;;;11.04;56.07;94360.97;519753;28;822;-48
2023/10/07 00:09:01;;;;;;;3.77;1.60;;;;;;;11.03;56.28;94365.00;520851;28;793;-48
2023/10/07 00:09:22;;;;;;;3.50;1.67;;;;;;;11.02;56.12;94363.50;521656;28;922;-48
2023/10/07 00:09:44;;;;;;;4.53;1.88;;;;;;;11.03;55.98;94362.22;521693;28;954;-48
2023/10/07 00:10:04;;;;;;;6.38;2.35;;;;;;;11.03;56.28;94359.47;521726;28;1108;-48
2023/10/07 00:10:25;;;;;;;5.75;2.00;;;;;;;11.03;55.94;94362.22;521813;28;914;-47
2023/10/07 00:10:41;;;;;;;3.25;1.90;;;;;;;11.03;56.44;94362.97;519664;28;1773;-48
2023/10/07 00:11:00;;;;;;;6.30;1.80;;;;;;;11.05;56.26;94360.44;519914;28;836;-48
2023/10/07 00:11:16;;;;;;;4.90;1.80;;;;;;;11.06;56.50;94358.41;519753;28;845;-48
2023/10/07 00:11:33;;;;;;;2.17;1.75;;;;;;;11.07;56.22;94357.13;520600;28;1180;-48
2023/10/07 00:11:48;;;;;;;4.45;1.80;;;;;;;11.06;55.98;94361.94;519875;28;820;-47
2023/10/07 00:12:04;;;;;;;4.93;1.77;;;;;;;11.08;56.27;94358.63;519973;28;809;-47
2023/10/07 00:12:19;;;;;;;2.00;1.48;;;;;;;11.08;55.97;94353.09;519792;28;856;-48
2023/10/07 00:12:35;;;;;;;1.40;1.30;;;;;;;10.95;56.11;94340.03;519868;28;940;-47
2023/10/07 00:12:52;;;;;;;1.98;1.60;;;;;;;11.06;56.15;94356.41;519826;28;953;-48
2023/10/07 00:13:10;;;;;;;2.63;1.85;;;;;;;11.06;56.08;94353.63;521626;28;1184;-47
2023/10/07 00:13:30;;;;;;;2.15;1.63;;;;;;;11.04;56.01;94355.44;521922;28;876;-47
2023/10/07 00:13:47;;;;;;;2.08;1.60;;;;;;;11.03;56.17;94356.69;521936;28;864;-48
2023/10/07 00:14:02;;;;;;;1.88;1.67;;;;;;;11.03;56.27;94351.94;521631;28;987;-49
2023/10/07 00:14:18;;;;;;;3.03;1.90;;;;;;;11.00;56.18;94352.25;521785;28;793;-48
2023/10/07 00:14:33;;;;;;;3.08;1.75;;;;;;;11.03;55.95;94354.69;521180;28;1061;-47
2023/10/07 00:14:49;;;;;;;2.00;1.57;;;;;;;10.93;56.15;94348.09;521931;28;871;-48
2023/10/07 00:15:05;;;;;;;1.60;1.50;;;;;;;11.00;56.39;94358.50;521898;28;916;-48
2023/10/07 00:15:21;;;;;;;5.18;1.50;;;;;;;10.99;56.58;94353.50;520023;28;813;-48
2023/10/07 00:15:37;;;;;;;5.03;1.63;;;;;;;10.95;56.49;94350.31;519914;28;805;-48
2023/10/07 00:15:53;;;;;;;1.60;1.50;;;;;;;10.97;56.60;94353.31;519747;28;845;-47
2023/10/07 00:16:17;;;;;;;2.33;1.73;;;;;;;10.98;56.38;94354.81;519773;28;936;-49
2023/10/07 00:16:32;;;;;;;1.92;1.70;;;;;;;11.00;56.49;94360.53;519806;28;892;-49
2023/10/07 00:16:47;;;;;;;2.43;1.70;;;;;;;11.00;56.25;94352.97;519755;28;970;-48
2023/10/07 00:17:06;;;;;;;2.27;1.30;;;;;;;10.93;56.42;94348.09;519782;28;902;-47
2023/10/07 00:17:22;;;;;;;3.53;1.58;;;;;;;11.01;56.22;94357.25;521011;28;1657;-47
2023/10/07 00:17:43;;;;;;;5.03;1.95;;;;;;;11.01;56.36;94357.25;521814;28;1274;-48
2023/10/07 00:18:15;;;;;;;3.35;1.90;;;;;;;11.02;56.06;94361.47;521914;28;864;-47
2023/10/07 00:18:33;;;;;;;5.95;1.90;;;;;;;11.04;55.97;94355.44;521574;28;1269;-48
2023/10/07 00:18:48;;;;;;;4.30;1.80;;;;;;;11.04;56.02;94356.19;521688;28;880;-49
2023/10/07 00:19:04;;;;;;;2.77;1.77;;;;;;;11.04;55.58;94352.69;521310;28;1034;-49
2023/10/07 00:19:19;;;;;;;3.20;1.80;;;;;;;11.05;55.71;94354.16;521689;28;800;-47
2023/10/07 00:19:34;;;;;;;4.30;1.83;;;;;;;11.04;55.67;94355.44;520677;28;1672;-48
2023/10/07 00:19:50;;;;;;;3.93;1.70;;;;;;;10.95;55.46;94355.84;521763;28;777;-48
2023/10/07 00:20:06;;;;;;;3.50;1.67;;;;;;;10.83;55.99;94354.56;520348;28;853;-47
2023/10/07 00:20:22;;;;;;;5.28;2.10;;;;;;;10.80;56.11;94350.09;519432;28;1324;-48
2023/10/07 00:20:48;;;;;;;5.15;2.10;;;;;;;10.79;56.28;94356.88;520475;28;1443;-48
2023/10/07 00:21:04;;;;;;;3.33;1.70;;;;;;;10.75;56.01;94351.66;520051;28;895;-47
2023/10/07 00:21:44;;;;;;;2.83;1.70;;;;;;;10.74;56.01;94350.19;521670;28;1394;-48
2023/10/07 00:22:08;;;;;;;1.77;1.55;;;;;;;10.80;56.29;94350.09;521506;28;888;-47
2023/10/07 00:22:26;;;;;;;3.30;1.80;;;;;;;10.78;55.93;94349.88;519789;28;943;-48
2023/10/07 00:22:47;;;;;;;2.47;1.70;;;;;;;10.78;56.27;94353.38;520591;28;978;-49
2023/10/07 00:23:04;;;;;;;3.88;2.10;;;;;;;10.79;55.99;94354.09;521768;28;936;-47
2023/10/07 00:23:26;;;;;;;2.97;2.00;;;;;;;10.68;56.13;94340.50;520121;28;856;-48
2023/10/07 00:23:42;;;;;;;2.10;1.90;;;;;;;10.78;55.97;94355.41;521658;28;1069;-48
2023/10/07 00:23:59;;;;;;;3.42;2.10;;;;;;;10.78;56.10;94347.88;521812;28;975;-48
2023/10/07 00:24:16;;;;;;;3.60;2.00;;;;;;;10.79;55.80;94354.84;521389;28;927;-48
2023/10/07 00:24:37;;;;;;;3.53;2.13;;;;;;;10.80;55.79;94348.06;519710;28;967;-47
2023/10/07 00:24:52;;;;;;;3.40;2.20;;;;;;;10.82;55.50;94344.78;520605;28;1681;-48
2023/10/07 00:25:08;;;;;;;2.13;1.73;;;;;;;10.84;55.56;94348.50;519870;28;1124;-48
2023/10/07 00:25:23;;;;;;;3.70;2.13;;;;;;;10.84;55.83;94353.28;519749;28;841;-47
2023/10/07 00:25:39;;;;;;;12.63;3.70;;;;;;;10.84;55.93;94350.50;519892;28;1049;-48
2023/10/07 00:25:58;;;;;;;10.83;3.20;;;;;;;10.72;56.04;94322.34;519774;28;847;-48
2023/10/07 00:26:13;;;;;;;2.83;2.10;;;;;;;10.85;55.66;94346.50;519805;28;832;-47
2023/10/07 00:26:29;;;;;;;2.30;2.00;;;;;;;10.85;56.01;94343.72;519944;28;1140;-49
2023/10/07 00:26:47;;;;;;;2.63;1.83;;;;;;;10.85;55.79;94341.69;521866;28;873;-48
2023/10/07 00:27:05;;;;;;;3.20;1.95;;;;;;;10.77;56.03;94331.78;521649;28;1973;-50
2023/10/07 00:27:29;;;;;;;2.58;2.00;;;;;;;10.87;55.75;94346.69;521780;28;943;-49
2023/10/07 00:27:48;;;;;;;3.08;1.98;;;;;;;10.85;56.05;94340.97;521910;28;860;-47
2023/10/07 00:28:17;;;;;;;5.03;2.30;;;;;;;10.86;55.71;94345.19;521799;28;1108;-48
2023/10/07 00:28:32;;;;;;;2.42;1.90;;;;;;;10.86;55.67;94347.97;521720;28;1063;-51
2023/10/07 00:28:54;;;;;;;2.72;1.95;;;;;;;10.77;56.03;94329.78;530189;27;1057;-49
2023/10/07 00:29:12;;;;;;;2.80;2.05;;;;;;;10.87;55.72;94338.41;532561;27;922;-48
2023/10/07 00:29:39;;;;;;;3.10;2.20;;;;;;;10.84;55.79;94339.47;521985;27;1113;-49
2023/10/07 00:29:54;;;;;;;3.97;2.25;;;;;;;10.86;55.62;94340.44;519860;28;901;-48
2023/10/07 00:30:15;;;;;;;2.88;2.05;;;;;;;10.84;55.73;94336.69;520817;28;837;-50
2023/10/07 00:30:32;;;;;;;2.00;1.80;;;;;;;10.81;56.06;94334.97;521787;28;964;-49
2023/10/07 00:30:49;;;;;;;2.70;2.08;;;;;;;10.78;55.71;94339.56;521947;28;828;-49
2023/10/07 00:31:22;;;;;;;2.88;2.17;;;;;;;10.77;55.86;94340.09;521664;28;1064;-48
2023/10/07 00:31:40;;;;;;;5.03;1.75;;;;;;;10.78;55.96;94339.56;521824;28;945;-47
2023/10/07 00:31:56;;;;;;;2.42;1.90;;;;;;;10.79;55.77;94340.28;521363;28;876;-48
2023/10/07 00:32:11;;;;;;;2.75;1.95;;;;;;;10.79;55.74;94340.28;519761;28;1079;-49
2023/10/07 00:32:32;;;;;;;4.47;2.20;;;;;;;10.78;56.12;94339.56;520266;28;1061;-48
2023/10/07 00:32:50;;;;;;;3.80;1.93;;;;;;;10.80;56.14;94345.31;520718;28;896;-49
2023/10/07 00:33:09;;;;;;;2.97;1.92;;;;;;;10.79;55.79;94343.06;521807;28;865;-49
2023/10/07 00:33:26;;;;;;;2.53;1.67;;;;;;;10.80;55.88;94339.03;521832;28;928;-48
2023/10/07 00:34:18;;;;;;;2.25;1.98;;;;;;;10.81;55.68;94340.50;521889;28;698;-49
2023/10/07 00:34:38;;;;;;;3.30;2.20;;;;;;;10.81;56.01;94346.03;521592;28;1124;-47
2023/10/07 00:34:59;;;;;;;2.47;2.13;;;;;;;10.82;55.76;94342.00;521676;28;1759;-49
2023/10/07 00:35:16;;;;;;;2.55;2.10;;;;;;;10.82;55.48;94342.00;521758;28;903;-48
2023/10/07 00:35:33;;;;;;;2.90;2.20;;;;;;;10.73;55.47;94331.38;520260;28;908;-49
2023/10/07 00:35:51;;;;;;;3.05;2.08;;;;;;;10.75;55.46;94337.09;521745;28;816;-49
2023/10/07 00:36:09;;;;;;;2.85;1.77;;;;;;;10.81;55.42;94346.03;519824;28;895;-48
2023/10/07 00:36:49;;;;;;;3.10;1.98;;;;;;;10.57;55.29;94311.03;519837;28;821;-48
2023/10/07 00:37:05;;;;;;;3.28;2.05;;;;;;;10.80;55.58;94341.78;520670;28;879;-48
2023/10/07 00:37:20;;;;;;;2.42;1.98;;;;;;;10.82;55.30;94342.00;521712;28;1017;-48
2023/10/07 00:37:38;;;;;;;2.80;1.97;;;;;;;10.81;55.53;94351.56;521885;28;876;-47
2023/10/07 00:37:53;;;;;;;2.92;2.00;;;;;;;10.80;55.31;94348.06;521815;28;911;-48
2023/10/07 00:38:14;;;;;;;2.00;1.80;;;;;;;10.79;55.42;94343.06;521884;28;789;-48
2023/10/07 00:38:37;;;;;;;2.17;1.80;;;;;;;10.76;55.50;94342.13;520027;28;1002;-48
2023/10/07 00:38:54;;;;;;;3.85;2.20;;;;;;;10.77;55.66;94343.59;521825;28;833;-48
2023/10/07 00:39:12;;;;;;;3.47;2.03;;;;;;;10.77;55.52;94342.84;521208;28;944;-48
2023/10/07 00:39:31;;;;;;;3.60;1.80;;;;;;;10.76;55.72;94338.59;519822;28;885;-48
2023/10/07 00:39:46;;;;;;;6.25;2.05;;;;;;;10.75;55.34;94342.63;519872;28;876;-48
2023/10/07 00:40:14;;;;;;;5.80;2.17;;;;;;;10.75;55.36;94345.41;520283;28;881;-49
2023/10/07 00:41:03;;;;;;;3.88;1.98;;;;;;;10.75;55.61;94348.16;521975;28;682;-48
2023/10/07 00:41:18;;;;;;;3.00;1.95;;;;;;;10.77;55.49;94345.59;520159;28;1002;-47
2023/10/07 00:41:45;;;;;;;1.97;1.80;;;;;;;10.76;55.53;94346.91;520611;28;848;-48
2023/10/07 00:42:07;;;;;;;2.10;1.70;;;;;;;10.78;55.69;94349.88;521826;28;1090;-48
2023/10/07 00:42:23;;;;;;;2.20;1.80;;;;;;;10.75;55.67;94350.91;520658;28;1514;-48
2023/10/07 00:42:42;;;;;;;1.77;1.65;;;;;;;10.72;55.62;94352.00;521230;28;1778;-48
2023/10/07 00:42:58;;;;;;;1.85;1.70;;;;;;;10.72;55.75;94349.22;521871;28;905;-48
2023/10/07 00:43:25;;;;;;;2.60;2.13;;;;;;;10.69;55.83;94348.25;521284;28;945;-48
2023/10/07 00:43:42;;;;;;;4.22;2.15;;;;;;;10.69;55.46;94353.78;519676;28;1635;-48
2023/10/07 00:44:15;;;;;;;2.30;1.80;;;;;;;10.69;55.64;94345.50;520948;28;902;-50
2023/10/07 00:44:35;;;;;;;5.60;1.95;;;;;;;10.70;55.43;94346.97;521754;28;924;-49
2023/10/07 00:44:53;;;;;;;2.17;1.85;;;;;;;10.71;55.71;94356.75;521807;28;1044;-48
2023/10/07 00:45:14;;;;;;;4.70;2.10;;;;;;;10.70;55.77;94349.72;521752;28;923;-48
2023/10/07 00:45:30;;;;;;;5.55;2.10;;;;;;;10.68;55.60;94353.03;521269;28;1029;-49
2023/10/07 00:45:45;;;;;;;2.80;1.90;;;;;;;10.68;55.65;94351.56;519830;28;805;-49
2023/10/07 00:46:10;;;;;;;2.73;2.00;;;;;;;10.66;55.63;94346.53;519727;28;898;-48
2023/10/07 00:46:28;;;;;;;2.95;2.00;;;;;;;10.66;55.58;94349.31;519846;28;841;-47
2023/10/07 00:47:19;;;;;;;1.98;1.83;;;;;;;10.66;55.53;94344.53;519636;28;686;-48
2023/10/07 00:47:35;;;;;;;2.40;1.83;;;;;;;10.67;55.76;94353.56;519636;28;1128;-48
2023/10/07 00:47:52;;;;;;;2.92;1.85;;;;;;;10.67;55.68;94345.28;517524;28;1117;-47
2023/10/07 00:48:11;;;;;;;2.30;1.63;;;;;;;10.68;55.37;94346.03;517637;28;900;-48
2023/10/07 00:48:43;;;;;;;3.63;1.75;;;;;;;10.68;55.66;94349.53;517632;28;850;-49
2023/10/07 00:49:09;;;;;;;2.88;1.73;;;;;;;10.68;55.30;94347.50;519312;28;825;-48
2023/10/07 00:49:28;;;;;;;2.28;1.65;;;;;;;10.68;55.35;94349.53;519570;28;861;-49
2023/10/07 00:50:00;;;;;;;2.97;1.92;;;;;;;10.67;55.63;94350.81;520352;28;1696;-48
2023/10/07 00:50:16;;;;;;;3.45;2.08;;;;;;;10.55;55.58;94330.91;519793;28;880;-48
2023/10/07 00:50:34;;;;;;;3.25;2.00;;;;;;;10.66;55.46;94352.06;519523;28;1986;-49
2023/10/07 00:50:49;;;;;;;3.97;1.60;;;;;;;10.65;55.42;94348.56;519659;28;897;-48
2023/10/07 00:51:11;;;;;;;3.97;1.50;;;;;;;10.60;55.57;94340.38;519592;28;817;-48
2023/10/07 00:51:42;;;;;;;3.03;1.75;;;;;;;10.65;55.51;94351.31;519628;28;915;-48
2023/10/07 00:51:58;;;;;;;3.10;1.70;;;;;;;10.65;55.47;94348.56;519635;28;935;-47
2023/10/07 00:52:33;;;;;;;3.55;1.75;;;;;;;10.61;55.25;94350.88;519535;28;947;-48
2023/10/07 00:53:12;;;;;;;4.03;1.25;;;;;;;10.65;54.69;94345.06;517544;28;840;-48
2023/10/07 00:53:30;;;;;;;4.38;1.42;;;;;;;10.63;54.77;94348.34;517615;28;876;-49
2023/10/07 00:53:46;;;;;;;1.92;1.35;;;;;;;10.62;54.82;94346.13;517634;28;869;-48
2023/10/07 00:54:18;;;;;;;2.50;1.10;;;;;;;10.46;55.06;94323.03;515885;28;885;-48
2023/10/07 00:54:59;;;;;;;1.60;1.45;;;;;;;10.59;54.67;94342.38;517459;28;897;-50
2023/10/07 00:55:22;;;;;;;2.40;1.70;;;;;;;10.57;54.85;94350.44;519911;28;1773;-48
2023/10/07 00:55:38;;;;;;;2.22;1.77;;;;;;;10.49;54.92;94340.56;517689;28;1133;-47
2023/10/07 00:55:53;;;;;;;2.65;1.63;;;;;;;10.55;55.24;94344.72;520486;28;856;-47
2023/10/07 00:56:10;;;;;;;2.70;1.50;;;;;;;10.54;55.38;94350.78;521437;28;834;-48
2023/10/07 00:56:27;;;;;;;2.42;1.75;;;;;;;10.53;55.49;94344.50;519696;28;892;-49
2023/10/07 00:56:50;;;;;;;2.22;1.85;;;;;;;10.53;55.34;94341.00;517561;28;822;-48
2023/10/07 00:57:23;;;;;;;1.95;1.60;;;;;;;10.53;55.70;94349.28;517490;28;897;-49
2023/10/07 00:57:47;;;;;;;1.85;1.65;;;;;;;10.23;55.83;94308.09;519585;28;971;-48
2023/10/07 00:58:21;;;;;;;3.40;1.67;;;;;;;10.45;56.03;94346.41;519590;28;860;-48
2023/10/07 00:58:36;;;;;;;4.72;1.98;;;;;;;10.38;55.85;94347.00;519685;28;995;-49
2023/10/07 00:58:53;;;;;;;3.30;1.58;;;;;;;10.37;56.01;94342.75;519728;28;939;-47
2023/10/07 00:59:09;;;;;;;1.75;1.55;;;;;;;10.34;56.09;94349.31;519748;28;875;-48
2023/10/07 00:59:24;;;;;;;2.08;1.70;;;;;;;10.32;56.21;94348.34;519611;28;1079;-47
2023/10/07 00:59:49;;;;;;;2.78;1.77;;;;;;;10.30;56.49;94348.88;521397;28;1018;-48
2023/10/07 01:00:42;;;;;;;4.05;1.92;;;;;;;10.26;56.75;94353.22;518993;28;873;-49
2023/10/07 01:00:49;;;;;;;2.63;1.83;;;;;;;10.25;56.65;94349.72;519318;28;1486;-51
2023/10/07 01:01:06;;;;;;;2.45;1.88;;;;;;;10.24;56.42;94345.47;515703;28;1066;-49
2023/10/07 01:01:24;;;;;;;1.80;1.60;;;;;;;10.27;56.61;94343.66;517137;28;876;-47
2023/10/07 01:01:45;;;;;;;3.73;1.70;;;;;;;10.27;56.37;94344.41;519048;28;1145;-48
2023/10/07 01:02:06;;;;;;;3.85;1.50;;;;;;;10.21;56.45;94341.00;526134;28;892;-48
2023/10/07 01:02:33;;;;;;;2.70;1.60;;;;;;;10.28;56.46;94345.91;526064;28;949;-48
2023/10/07 01:02:53;;;;;;;3.17;1.92;;;;;;;10.30;56.26;94345.38;520929;28;1077;-48
2023/10/07 01:03:48;;;;;;;2.78;1.88;;;;;;;10.15;56.15;94331.31;521712;28;856;-48
2023/10/07 01:04:06;;;;;;;3.05;1.63;;;;;;;10.24;56.49;94344.72;521676;28;857;-47
2023/10/07 01:04:21;;;;;;;1.90;1.50;;;;;;;10.24;56.28;94345.47;520888;28;912;-48
2023/10/07 01:04:40;;;;;;;3.30;1.60;;;;;;;10.24;56.29;94347.50;521760;28;947;-48
2023/10/07 01:05:00;;;;;;;2.42;1.50;;;;;;;10.27;56.05;94340.91;519622;28;858;-48
2023/10/07 01:05:22;;;;;;;2.00;1.40;;;;;;;10.22;56.29;94345.22;519497;28;849;-49
2023/10/07 01:05:44;;;;;;;1.67;1.48;;;;;;;10.22;56.06;94344.50;519580;28;1098;-48
2023/10/07 01:06:29;;;;;;;2.33;1.87;;;;;;;10.14;56.26;94343.59;520564;28;674;-49
2023/10/07 01:06:45;;;;;;;2.17;1.65;;;;;;;10.17;56.27;94348.84;521690;28;849;-48
2023/10/07 01:07:03;;;;;;;2.38;1.67;;;;;;;10.18;56.35;94346.81;519550;28;919;-49
2023/10/07 01:07:19;;;;;;;2.33;1.67;;;;;;;10.21;56.11;94345.75;517731;28;1564;-48
2023/10/07 01:07:35;;;;;;;3.80;1.88;;;;;;;10.10;56.10;94335.63;520451;28;861;-49
2023/10/07 01:07:53;;;;;;;3.37;1.77;;;;;;;10.17;56.32;94350.84;519411;28;1054;-49
2023/10/07 01:08:09;;;;;;;2.72;1.80;;;;;;;10.16;56.13;94346.59;519639;28;840;-49
2023/10/07 01:08:34;;;;;;;3.20;1.90;;;;;;;10.15;56.46;94353.38;519577;28;1547;-49
2023/10/07 01:08:58;;;;;;;2.55;2.00;;;;;;;10.17;56.31;94345.31;521371;28;873;-50
2023/10/07 01:09:22;;;;;;;2.28;1.80;;;;;;;10.18;56.35;94344.78;519603;28;1052;-49
2023/10/07 01:09:37;;;;;;;3.17;2.05;;;;;;;9.94;56.51;94314.53;519790;28;897;-49
2023/10/07 01:10:11;;;;;;;4.33;2.03;;;;;;;10.15;56.49;94345.84;519763;28;875;-49
2023/10/07 01:10:27;;;;;;;2.80;1.75;;;;;;;10.11;56.80;94339.16;519724;28;856;-50
2023/10/07 01:10:53;;;;;;;3.20;1.90;;;;;;;10.09;56.57;94345.16;521221;28;1487;-49
2023/10/07 01:11:30;;;;;;;3.30;2.22;;;;;;;10.15;56.71;94350.63;519663;28;769;-51
2023/10/07 01:11:46;;;;;;;2.77;2.10;;;;;;;10.16;56.62;94343.81;519886;28;829;-49
2023/10/07 01:12:01;;;;;;;3.97;1.80;;;;;;;10.17;56.57;94346.06;519708;28;818;-50
2023/10/07 01:12:18;;;;;;;4.20;1.83;;;;;;;10.20;56.83;94341.53;521041;28;1132;-49
2023/10/07 01:12:38;;;;;;;2.10;1.90;;;;;;;10.22;56.51;94350.03;521689;28;917;-48
2023/10/07 01:12:59;;;;;;;1.92;1.75;;;;;;;10.24;56.66;94345.47;521840;28;907;-49
2023/10/07 01:13:29;;;;;;;2.03;1.63;;;;;;;10.24;56.39;94350.25;521761;28;909;-50
2023/10/07 01:13:51;;;;;;;2.13;1.92;;;;;;;10.23;56.57;94343.22;521617;28;1163;-49
2023/10/07 01:14:11;;;;;;;3.17;2.25;;;;;;;10.23;55.93;94346.72;521690;28;1977;-49
2023/10/07 01:14:27;;;;;;;3.60;2.13;;;;;;;10.24;55.90;94351.00;521765;28;912;-49
2023/10/07 01:14:47;;;;;;;2.88;2.13;;;;;;;10.26;56.00;94353.97;520239;28;1276;-48
2023/10/07 01:15:30;;;;;;;2.95;2.25;;;;;;;10.25;55.96;94346.94;521260;28;1099;-49
2023/10/07 01:15:48;;;;;;;3.35;2.17;;;;;;;10.27;55.93;94346.41;520453;28;1507;-48
2023/10/07 01:16:06;;;;;;;3.10;2.00;;;;;;;10.27;55.95;94349.94;530248;27;943;-48
2023/10/07 01:17:14;;;;;;;2.70;1.65;;;;;;;10.25;55.58;94335.91;517342;28;876;-49
2023/10/07 01:17:30;;;;;;;2.08;1.63;;;;;;;10.30;55.30;94343.38;516890;28;1233;-48
2023/10/07 01:17:55;;;;;;;2.83;1.65;;;;;;;10.29;55.66;94344.63;520228;28;1061;-48
2023/10/07 01:18:13;;;;;;;5.18;1.70;;;;;;;10.31;55.31;94346.88;521627;28;1069;-48
2023/10/07 01:18:28;;;;;;;2.72;1.80;;;;;;;10.29;55.31;94347.38;521603;28;844;-48
2023/10/07 01:18:44;;;;;;;1.77;1.50;;;;;;;10.28;55.23;94348.66;519573;28;928;-48
2023/10/07 01:19:43;;;;;;;3.85;2.20;;;;;;;10.23;55.27;94345.97;523443;28;1340;-49
2023/10/07 01:19:52;;;;;;;2.03;1.55;;;;;;;10.26;55.16;94353.22;519562;28;857;-48
2023/10/07 01:20:05;;;;;;;4.10;2.05;;;;;;;10.19;55.55;94346.28;518819;28;1784;-50
2023/10/07 01:21:11;;;;;;;3.65;1.50;;;;;;;10.13;55.31;94353.16;517229;28;1288;-48
2023/10/07 01:21:33;;;;;;;3.78;1.83;;;;;;;10.11;55.25;94353.69;517337;28;1520;-48
2023/10/07 01:21:54;;;;;;;3.17;2.00;;;;;;;10.13;55.39;94350.41;517439;28;959;-49
2023/10/07 01:22:18;;;;;;;6.90;2.20;;;;;;;10.03;55.58;94336.22;517317;28;1097;-49
2023/10/07 01:22:36;;;;;;;6.78;1.88;;;;;;;10.12;55.16;94344.13;519720;28;858;-48
2023/10/07 01:23:04;;;;;;;4.05;1.92;;;;;;;10.13;55.20;94351.16;520399;28;864;-50
2023/10/07 01:23:32;;;;;;;3.35;2.08;;;;;;;10.14;55.16;94341.59;519681;28;898;-51
2023/10/07 01:23:53;;;;;;;3.05;2.20;;;;;;;10.14;55.26;94344.34;520394;28;959;-48
2023/10/07 01:24:13;;;;;;;6.32;1.85;;;;;;;10.14;55.33;94347.13;519785;28;836;-49
2023/10/07 01:24:44;;;;;;;5.35;1.58;;;;;;;10.13;55.26;94348.41;519697;28;1011;-49
2023/10/07 01:24:59;;;;;;;2.10;1.48;;;;;;;10.13;55.65;94345.63;520428;28;2386;-50
2023/10/07 01:25:18;;;;;;;2.05;1.58;;;;;;;10.13;55.22;94350.41;521656;28;1139;-48
2023/10/07 01:25:43;;;;;;;1.90;1.40;;;;;;;10.12;55.58;94349.66;521561;28;1712;-49
2023/10/07 01:26:01;;;;;;;2.00;1.30;;;;;;;10.11;55.67;94342.66;521586;28;893;-48
2023/10/07 01:26:22;;;;;;;2.38;1.60;;;;;;;9.99;55.50;94330.25;519532;28;905;-50
2023/10/07 01:26:41;;;;;;;2.85;1.75;;;;;;;10.08;55.77;94343.66;517612;28;1268;-48
2023/10/07 01:27:02;;;;;;;3.20;1.52;;;;;;;10.07;55.87;94346.97;519380;28;1327;-49
2023/10/07 01:27:49;;;;;;;1.85;1.40;;;;;;;10.01;55.82;94343.50;517445;28;857;-50
2023/10/07 01:28:08;;;;;;;1.83;1.45;;;;;;;9.98;56.04;94342.56;518542;28;906;-48
2023/10/07 01:28:26;;;;;;;1.63;1.48;;;;;;;9.98;55.76;94339.81;519912;28;913;-50
2023/10/07 01:28:43;;;;;;;2.30;1.70;;;;;;;9.97;55.88;94343.06;519528;28;956;-49
2023/10/07 01:29:15;;;;;;;3.08;1.50;;;;;;;9.79;56.08;94326.00;519576;28;848;-48
2023/10/07 01:29:32;;;;;;;2.47;1.75;;;;;;;9.85;55.78;94337.72;519363;28;1125;-49
2023/10/07 01:29:59;;;;;;;2.53;1.70;;;;;;;9.93;56.22;94348.91;521835;28;864;-49
2023/10/07 01:30:25;;;;;;;3.50;1.80;;;;;;;9.92;56.20;94353.66;521756;28;848;-50
2023/10/07 01:31:06;;;;;;;1.83;1.60;;;;;;;9.90;56.18;94345.16;521781;28;959;-49
2023/10/07 01:31:20;;;;;;;1.40;1.30;;;;;;;9.82;56.53;94343.53;519816;28;1299;-49
2023/10/07 01:31:40;;;;;;;1.77;1.52;;;;;;;9.75;56.54;94352.41;521735;28;869;-49
2023/10/07 01:32:04;;;;;;;2.40;1.67;;;;;;;9.72;56.54;94345.91;521823;28;836;-48
2023/10/07 01:32:20;;;;;;;3.63;2.00;;;;;;;9.69;56.87;94335.19;521722;28;853;-49
2023/10/07 01:32:48;;;;;;;2.75;1.65;;;;;;;9.72;57.08;94350.69;521468;28;1112;-50
2023/10/07 01:33:51;;;;;;;1.70;1.60;;;;;;;9.73;56.82;94346.66;519739;28;777;-48
2023/10/07 01:34:08;;;;;;;1.65;1.55;;;;;;;9.73;56.73;94343.91;520407;28;1388;-49
2023/10/07 01:34:35;;;;;;;1.48;1.38;;;;;;;9.73;56.86;94343.91;521770;28;979;-49
2023/10/07 01:34:52;;;;;;;1.45;1.35;;;;;;;9.73;57.00;94341.91;519717;28;908;-49
2023/10/07 01:35:11;;;;;;;1.85;1.50;;;;;;;9.74;57.04;94342.66;519746;28;1096;-48
2023/10/07 01:35:31;;;;;;;1.90;1.58;;;;;;;9.73;56.66;94341.16;519774;28;885;-48
2023/10/07 01:36:20;;;;;;;1.70;1.60;;;;;;;9.70;56.76;94336.69;521246;28;808;-49
2023/10/07 01:36:36;;;;;;;1.58;1.48;;;;;;;9.69;56.80;94338.69;521744;28;951;-49
2023/10/07 01:36:52;;;;;;;1.50;1.40;;;;;;;9.73;57.02;94341.91;521617;28;830;-49
2023/10/07 01:37:11;;;;;;;1.73;1.40;;;;;;;9.74;56.82;94342.66;520635;28;876;-49
2023/10/07 01:37:36;;;;;;;1.67;1.38;;;;;;;9.74;56.94;94343.41;521418;28;953;-49
2023/10/07 01:38:18;;;;;;;3.03;1.60;;;;;;;9.71;56.88;94344.44;521585;28;912;-49
2023/10/07 01:38:32;;;;;;;2.85;1.95;;;;;;;9.73;56.76;94341.16;521515;28;1334;-48
2023/10/07 01:38:53;;;;;;;2.17;1.70;;;;;;;9.72;57.06;94345.19;521234;28;926;-47
2023/10/07 01:39:08;;;;;;;1.70;1.58;;;;;;;9.73;57.01;94343.91;521137;28;998;-49
2023/10/07 01:39:24;;;;;;;2.88;1.60;;;;;;;9.73;57.08;94341.16;519835;28;1115;-48
2023/10/07 01:39:42;;;;;;;3.07;1.50;;;;;;;9.72;57.14;94339.66;519753;28;860;-49
2023/10/07 01:39:58;;;;;;;1.63;1.52;;;;;;;9.68;57.18;94336.47;519729;28;956;-49
2023/10/07 01:40:16;;;;;;;1.75;1.63;;;;;;;9.69;57.12;94346.22;520535;28;1101;-49
2023/10/07 01:40:41;;;;;;;1.67;1.55;;;;;;;9.69;57.27;94340.69;521664;28;979;-48
2023/10/07 01:41:04;;;;;;;2.70;1.80;;;;;;;9.71;57.24;94349.19;521809;28;848;-49
2023/10/07 01:41:21;;;;;;;3.47;2.05;;;;;;;9.71;57.41;94346.44;521807;28;1094;-48
2023/10/07 01:41:39;;;;;;;3.23;1.70;;;;;;;9.69;57.28;94335.94;521737;28;873;-49
2023/10/07 01:41:54;;;;;;;4.70;1.50;;;;;;;9.72;57.25;94342.44;520083;28;1616;-50
2023/10/07 01:42:14;;;;;;;2.10;1.63;;;;;;;9.73;57.10;94343.91;521718;28;1013;-48
2023/10/07 01:42:37;;;;;;;3.53;1.85;;;;;;;9.69;57.05;94335.19;521730;28;919;-48
2023/10/07 01:42:53;;;;;;;2.88;1.88;;;;;;;9.72;56.97;94340.41;521685;28;861;-48
2023/10/07 01:43:08;;;;;;;1.90;1.60;;;;;;;9.72;56.88;94340.41;520457;28;1021;-50
2023/10/07 01:43:24;;;;;;;1.90;1.70;;;;;;;9.72;57.18;94340.41;521755;28;880;-48
2023/10/07 01:43:40;;;;;;;1.95;1.75;;;;;;;9.73;56.92;94341.91;521714;28;833;-49
2023/10/07 01:43:59;;;;;;;2.15;1.50;;;;;;;9.69;56.99;94341.44;521801;28;869;-49